Time;durP1;ratioP1;P1;durP2;ratioP2;P2;SDS_P1;SDS_P2;PMS_P1;PMS_P2;Temp;Humidity;BMP_temperature;BMP_pressure;BME280_temperature;BME280_humidity;BME280_pressure;Samples;Min_cycle;Max_cycle;Signal;HPM_P1;HPM_P2
2021/06/20 00:01:40;;;;;;;35.28;21.67;;;16.90;99.90;;;;;;5033509;28;20041;-71
2021/06/20 00:04:06;;;;;;;34.53;21.00;;;17.00;99.90;;;;;;5033861;28;20060;-70
2021/06/20 00:06:35;;;;;;;41.55;22.77;;;17.00;99.90;;;;;;5033520;28;20068;-70
2021/06/20 00:09:05;;;;;;;41.58;23.42;;;17.00;99.90;;;;;;5033143;28;20044;-70
2021/06/20 00:11:32;;;;;;;39.72;22.70;;;17.00;99.90;;;;;;5033655;28;20120;-70
2021/06/20 00:13:58;;;;;;;45.88;25.95;;;17.00;99.90;;;;;;5032393;28;20041;-70
2021/06/20 00:16:24;;;;;;;47.47;26.65;;;17.00;99.90;;;;;;5033898;28;20116;-69
2021/06/20 00:18:51;;;;;;;45.47;26.17;;;16.80;99.90;;;;;;5033501;28;20037;-69
2021/06/20 00:21:17;;;;;;;49.55;27.48;;;16.80;99.90;;;;;;5033213;28;20493;-71
2021/06/20 00:23:42;;;;;;;41.50;26.08;;;16.80;99.90;;;;;;5033207;28;20037;-70
2021/06/20 00:26:08;;;;;;;42.80;27.35;;;16.60;99.90;;;;;;5033427;28;20049;-71
2021/06/20 00:28:34;;;;;;;44.78;26.33;;;16.70;99.90;;;;;;5032886;28;20046;-71
2021/06/20 00:31:00;;;;;;;57.47;29.10;;;16.70;99.90;;;;;;5033230;28;20044;-70
2021/06/20 00:33:26;;;;;;;50.25;29.83;;;16.60;99.90;;;;;;5033032;28;20052;-70
2021/06/20 00:35:52;;;;;;;47.55;28.50;;;16.40;99.90;;;;;;5033217;28;20121;-70
2021/06/20 00:38:17;;;;;;;43.85;27.38;;;16.40;99.90;;;;;;5031928;28;20095;-70
2021/06/20 00:40:43;;;;;;;46.17;27.05;;;16.40;99.90;;;;;;5032834;28;20497;-71
2021/06/20 00:43:09;;;;;;;44.88;25.80;;;16.50;99.90;;;;;;5033067;28;20064;-71
2021/06/20 00:45:35;;;;;;;47.78;26.40;;;16.50;99.90;;;;;;5033194;28;20398;-70
2021/06/20 00:48:00;;;;;;;62.72;32.35;;;16.50;99.90;;;;;;5033633;28;20116;-70
2021/06/20 00:50:27;;;;;;;42.47;26.60;;;16.50;99.90;;;;;;5032490;28;20033;-70
2021/06/20 00:52:58;;;;;;;48.72;27.52;;;16.70;99.90;;;;;;5033403;28;20041;-70
2021/06/20 00:55:27;;;;;;;46.28;27.58;;;16.80;99.90;;;;;;5033547;28;20111;-70
2021/06/20 00:57:53;;;;;;;44.65;26.50;;;16.70;99.90;;;;;;5033430;28;20410;-70
2021/06/20 01:00:19;;;;;;;44.15;26.40;;;16.60;99.90;;;;;;5035525;28;20046;-70
2021/06/20 01:02:46;;;;;;;42.55;25.77;;;16.60;99.90;;;;;;5036917;28;20506;-70
2021/06/20 01:05:13;;;;;;;44.95;26.38;;;16.70;99.90;;;;;;5037018;28;20068;-70
2021/06/20 01:07:39;;;;;;;43.30;25.60;;;16.60;99.90;;;;;;5036843;28;20049;-70
2021/06/20 01:10:07;;;;;;;46.22;25.50;;;16.70;99.90;;;;;;5036614;28;20041;-70
2021/06/20 01:12:33;;;;;;;47.95;26.52;;;16.70;99.90;;;;;;5036066;28;20049;-70
2021/06/20 01:14:59;;;;;;;55.72;29.27;;;16.80;99.90;;;;;;5036796;28;20052;-70
2021/06/20 01:17:25;;;;;;;45.47;24.45;;;16.90;99.90;;;;;;5036584;28;20041;-70
2021/06/20 01:19:51;;;;;;;41.08;23.38;;;16.70;99.90;;;;;;5036521;28;20045;-71
2021/06/20 01:22:24;;;;;;;40.15;24.25;;;16.70;99.90;;;;;;5036814;28;20120;-70
2021/06/20 01:24:55;;;;;;;50.20;26.05;;;16.70;99.90;;;;;;5036908;28;20072;-70
2021/06/20 01:27:42;;;;;;;46.53;25.88;;;16.70;99.90;;;;;;5036473;28;20041;-70
2021/06/20 01:30:14;;;;;;;45.10;26.05;;;16.70;99.90;;;;;;5035975;28;20478;-69
2021/06/20 01:32:40;;;;;;;43.55;25.98;;;16.70;99.90;;;;;;5036471;28;20042;-70
2021/06/20 01:35:09;;;;;;;48.97;27.85;;;16.80;99.90;;;;;;5036210;28;20042;-70
2021/06/20 01:37:35;;;;;;;53.83;27.90;;;16.90;99.90;;;;;;5036161;28;20041;-70
2021/06/20 01:40:01;;;;;;;47.08;26.75;;;16.70;99.90;;;;;;5035873;28;20556;-70
2021/06/20 01:42:26;;;;;;;48.53;26.17;;;16.60;99.90;;;;;;5036359;28;20042;-70
2021/06/20 01:44:57;;;;;;;45.30;25.95;;;16.60;99.90;;;;;;5036091;28;20472;-70
2021/06/20 01:47:24;;;;;;;54.72;27.90;;;16.50;99.90;;;;;;5036103;28;20038;-71
2021/06/20 01:49:51;;;;;;;50.28;28.02;;;16.50;99.90;;;;;;5035874;28;20046;-71
2021/06/20 01:52:18;;;;;;;50.85;27.50;;;16.40;99.90;;;;;;5036370;28;20061;-69
2021/06/20 01:54:50;;;;;;;55.42;30.63;;;16.40;99.90;;;;;;5036293;28;20072;-70
2021/06/20 01:57:28;;;;;;;58.65;30.20;;;16.50;99.90;;;;;;5035094;28;20373;-70
2021/06/20 01:59:58;;;;;;;45.22;25.88;;;16.50;99.90;;;;;;5035486;28;20482;-70
2021/06/20 02:02:26;;;;;;;49.05;26.08;;;16.60;99.90;;;;;;5036161;28;20094;-70
2021/06/20 02:04:54;;;;;;;52.20;27.75;;;16.60;99.90;;;;;;5035815;28;20037;-70
2021/06/20 02:07:20;;;;;;;47.83;26.92;;;16.60;99.90;;;;;;5035925;28;20155;-70
2021/06/20 02:09:46;;;;;;;49.97;26.55;;;16.60;99.90;;;;;;5035268;28;20058;-70
2021/06/20 02:12:13;;;;;;;43.65;25.20;;;16.70;99.90;;;;;;5034762;28;20042;-70
2021/06/20 02:14:40;;;;;;;40.42;25.17;;;16.80;99.90;;;;;;5035509;28;20042;-69
2021/06/20 02:17:22;;;;;;;44.65;24.05;;;16.70;99.90;;;;;;5035426;28;20041;-70
2021/06/20 02:19:48;;;;;;;49.47;27.13;;;16.70;99.90;;;;;;5035048;28;20056;-70
2021/06/20 02:22:15;;;;;;;48.08;26.63;;;16.80;99.90;;;;;;5035404;28;20124;-70
2021/06/20 02:24:41;;;;;;;41.85;23.58;;;16.90;99.90;;;;;;5035256;28;20041;-70
2021/06/20 02:27:09;;;;;;;46.15;25.17;;;16.80;99.90;;;;;;5035233;28;20048;-70
2021/06/20 02:29:36;;;;;;;49.58;25.42;;;16.80;99.90;;;;;;5035036;28;20038;-70
2021/06/20 02:32:03;;;;;;;41.45;25.55;;;16.90;99.90;;;;;;5035262;28;20041;-70
2021/06/20 02:34:28;;;;;;;49.10;25.92;;;16.90;99.90;;;;;;5035075;28;20095;-70
2021/06/20 02:36:54;;;;;;;45.75;27.33;;;16.90;99.90;;;;;;5035128;28;20076;-70
2021/06/20 02:39:20;;;;;;;47.75;27.23;;;16.90;99.90;;;;;;5035284;28;20454;-70
2021/06/20 02:41:49;;;;;;;49.10;27.17;;;17.00;99.90;;;;;;5035353;28;20050;-70
2021/06/20 02:44:16;;;;;;;52.97;29.77;;;17.00;99.90;;;;;;5034964;28;20494;-70
2021/06/20 02:46:41;;;;;;;45.15;26.20;;;17.10;99.90;;;;;;5035329;28;20477;-70
2021/06/20 02:49:07;;;;;;;47.45;28.95;;;17.10;99.90;;;;;;5034647;28;20042;-70
2021/06/20 02:51:33;;;;;;;48.85;28.08;;;17.00;99.90;;;;;;5034706;28;20103;-70
2021/06/20 02:53:58;;;;;;;47.67;27.80;;;16.90;99.90;;;;;;5035050;28;20037;-70
2021/06/20 02:56:24;;;;;;;48.40;29.33;;;17.10;99.90;;;;;;5035289;28;20120;-69
2021/06/20 02:58:50;;;;;;;49.88;28.83;;;17.00;99.90;;;;;;5034396;28;20065;-70
2021/06/20 03:01:15;;;;;;;48.47;29.13;;;17.00;99.90;;;;;;5034510;28;20045;-70
2021/06/20 03:03:41;;;;;;;57.72;31.00;;;17.10;99.90;;;;;;5034507;28;20515;-70
2021/06/20 03:06:07;;;;;;;56.92;31.85;;;16.90;99.90;;;;;;5034720;28;20056;-70
2021/06/20 03:08:33;;;;;;;54.67;30.40;;;17.00;99.90;;;;;;5034604;28;20412;-71
2021/06/20 03:10:59;;;;;;;53.55;31.73;;;17.00;99.90;;;;;;5034366;28;20037;-70
2021/06/20 03:13:24;;;;;;;53.28;31.48;;;17.00;99.90;;;;;;5034464;28;20136;-70
2021/06/20 03:15:50;;;;;;;51.22;30.65;;;17.00;99.90;;;;;;5034331;28;20490;-70
2021/06/20 03:18:16;;;;;;;50.88;31.48;;;17.00;99.90;;;;;;5033852;28;20041;-70
2021/06/20 03:20:42;;;;;;;54.17;32.75;;;17.00;99.90;;;;;;5034095;28;20038;-71
2021/06/20 03:23:10;;;;;;;51.05;29.58;;;17.10;99.90;;;;;;5034498;28;20393;-70
2021/06/20 03:25:41;;;;;;;53.78;32.53;;;17.10;99.90;;;;;;5034361;28;20559;-70
2021/06/20 03:28:08;;;;;;;55.47;31.83;;;17.10;99.90;;;;;;5033037;28;20069;-70
2021/06/20 03:30:35;;;;;;;56.75;32.72;;;17.30;99.90;;;;;;5033594;28;20080;-70
2021/06/20 03:33:01;;;;;;;54.95;32.47;;;17.40;99.90;;;;;;5034058;28;20535;-70
2021/06/20 03:35:28;;;;;;;56.88;33.03;;;17.40;99.90;;;;;;5034271;28;20033;-70
2021/06/20 03:37:54;;;;;;;56.10;33.05;;;17.30;99.90;;;;;;5034096;28;20041;-70
2021/06/20 03:40:20;;;;;;;60.20;33.72;;;17.40;99.90;;;;;;5033820;28;20121;-70
2021/06/20 03:42:46;;;;;;;53.50;31.83;;;17.40;99.90;;;;;;5033978;28;20042;-69
2021/06/20 03:45:12;;;;;;;57.47;33.45;;;17.30;99.90;;;;;;5033967;28;20043;-70
2021/06/20 03:47:38;;;;;;;56.50;34.22;;;17.30;99.90;;;;;;5034376;28;20041;-70
2021/06/20 03:50:07;;;;;;;58.30;33.42;;;17.30;99.90;;;;;;5033587;28;20120;-71
2021/06/20 03:52:32;;;;;;;56.65;34.13;;;17.30;99.90;;;;;;5033754;28;20064;-70
2021/06/20 03:54:58;;;;;;;55.65;34.10;;;17.30;99.90;;;;;;5033676;28;20477;-71
2021/06/20 03:57:24;;;;;;;53.10;32.78;;;17.30;99.90;;;;;;5034259;28;20462;-70
2021/06/20 03:59:50;;;;;;;58.03;33.75;;;17.40;99.90;;;;;;5033453;28;20043;-71
2021/06/20 04:02:16;;;;;;;51.10;32.47;;;17.30;99.90;;;;;;5032714;28;20095;-70
2021/06/20 04:04:43;;;;;;;56.03;33.83;;;17.40;99.90;;;;;;5033819;28;20037;-70
2021/06/20 04:07:11;;;;;;;53.30;31.30;;;17.40;99.90;;;;;;5033951;28;20048;-70
2021/06/20 04:09:41;;;;;;;50.58;32.92;;;17.40;99.90;;;;;;5033383;28;20052;-71
2021/06/20 04:12:13;;;;;;;52.85;32.67;;;17.40;99.90;;;;;;5033752;28;20041;-71
2021/06/20 04:14:39;;;;;;;43.28;30.80;;;17.40;99.90;;;;;;5033663;28;20124;-70
2021/06/20 04:17:06;;;;;;;51.50;32.72;;;17.50;99.90;;;;;;5033420;28;20041;-71
2021/06/20 04:19:32;;;;;;;50.80;32.30;;;17.60;99.90;;;;;;5033025;28;20490;-71
2021/06/20 04:21:57;;;;;;;45.30;30.30;;;17.50;99.90;;;;;;5033327;28;20072;-71
2021/06/20 04:24:23;;;;;;;51.05;32.85;;;17.60;99.90;;;;;;5033380;28;20116;-71
2021/06/20 04:26:49;;;;;;;51.45;33.08;;;17.50;99.90;;;;;;5033300;28;20042;-71
2021/06/20 04:29:15;;;;;;;46.17;31.23;;;17.60;99.90;;;;;;5032689;28;20046;-71
2021/06/20 04:31:41;;;;;;;53.63;33.30;;;17.60;99.90;;;;;;5032970;28;20045;-71
2021/06/20 04:34:08;;;;;;;47.42;32.65;;;17.60;99.90;;;;;;5035630;28;20048;-71
2021/06/20 04:36:33;;;;;;;48.60;32.28;;;17.60;99.90;;;;;;5040181;28;20037;-71
2021/06/20 04:38:59;;;;;;;50.25;34.03;;;17.60;99.90;;;;;;5039475;28;20504;-71
2021/06/20 04:41:25;;;;;;;46.50;32.75;;;17.60;99.90;;;;;;5039682;28;20064;-71
2021/06/20 04:46:26;;;;;;;52.00;33.25;;;17.60;99.90;;;;;;5040247;28;20046;-71
2021/06/20 04:48:54;;;;;;;46.58;32.25;;;17.70;99.90;;;;;;5039580;28;20048;-71
2021/06/20 04:51:20;;;;;;;55.20;34.45;;;17.70;99.90;;;;;;5039551;28;20038;-71
2021/06/20 04:53:47;;;;;;;58.55;38.40;;;17.70;99.90;;;;;;5039688;28;20042;-71
2021/06/20 04:56:13;;;;;;;58.58;38.80;;;17.70;99.90;;;;;;5040147;28;20045;-71
2021/06/20 04:58:40;;;;;;;55.83;38.25;;;17.70;99.90;;;;;;5039466;28;20376;-71
2021/06/20 05:01:05;;;;;;;55.88;37.03;;;17.80;99.90;;;;;;5039692;28;20041;-71
2021/06/20 05:03:31;;;;;;;59.42;36.63;;;17.80;99.90;;;;;;5039382;28;20175;-71
2021/06/20 05:05:57;;;;;;;58.28;40.08;;;17.90;99.90;;;;;;5039524;28;20037;-71
2021/06/20 05:08:22;;;;;;;58.45;37.63;;;17.80;99.90;;;;;;5039451;28;20065;-71
2021/06/20 05:10:50;;;;;;;58.72;38.95;;;17.90;99.90;;;;;;5039326;28;20052;-71
2021/06/20 05:13:16;;;;;;;59.90;37.38;;;17.90;99.90;;;;;;5039484;28;20120;-71
2021/06/20 05:15:41;;;;;;;53.30;36.95;;;17.90;99.90;;;;;;5039706;28;20112;-71
2021/06/20 05:18:07;;;;;;;56.67;37.42;;;17.90;99.90;;;;;;5039303;28;20080;-71
2021/06/20 05:20:33;;;;;;;59.45;39.15;;;17.90;99.90;;;;;;5039048;28;20045;-71
2021/06/20 05:22:58;;;;;;;52.88;38.13;;;17.90;99.90;;;;;;5039739;28;20528;-71
2021/06/20 05:25:24;;;;;;;59.50;39.55;;;18.00;99.90;;;;;;5039831;28;20067;-71
2021/06/20 05:27:50;;;;;;;66.15;42.28;;;18.00;99.90;;;;;;5039523;28;20049;-70
2021/06/20 05:30:16;;;;;;;59.45;40.67;;;18.00;99.90;;;;;;5038866;28;20497;-70
2021/06/20 05:32:42;;;;;;;63.42;40.70;;;18.00;99.90;;;;;;5039308;28;20045;-70
2021/06/20 05:35:08;;;;;;;59.67;40.17;;;18.10;99.90;;;;;;5038242;28;20049;-70
2021/06/20 05:37:34;;;;;;;55.33;40.22;;;18.20;99.90;;;;;;5039091;28;20041;-70
2021/06/20 05:40:00;;;;;;;58.08;39.88;;;18.20;99.90;;;;;;5038985;28;20124;-70
2021/06/20 05:42:25;;;;;;;64.00;40.92;;;18.20;99.90;;;;;;5039506;28;20056;-71
2021/06/20 05:44:52;;;;;;;59.50;39.83;;;18.20;99.90;;;;;;5038663;28;20045;-71
2021/06/20 05:47:20;;;;;;;56.75;39.72;;;18.30;99.90;;;;;;5035404;28;20037;-71
2021/06/20 05:49:46;;;;;;;65.18;42.72;;;18.30;99.90;;;;;;5035687;28;20041;-71
2021/06/20 05:52:11;;;;;;;63.70;40.70;;;18.30;99.90;;;;;;5035906;28;20049;-70
2021/06/20 05:54:37;;;;;;;60.90;41.65;;;18.40;99.90;;;;;;5036249;28;20386;-71
2021/06/20 05:57:03;;;;;;;62.50;42.63;;;18.40;99.90;;;;;;5036077;28;20121;-71
2021/06/20 05:59:30;;;;;;;59.92;40.60;;;18.40;99.90;;;;;;5035597;28;20049;-71
2021/06/20 06:01:55;;;;;;;63.03;41.80;;;18.50;99.90;;;;;;5035657;28;20041;-70
2021/06/20 06:04:23;;;;;;;59.88;40.58;;;18.60;99.90;;;;;;5035951;28;20049;-70
2021/06/20 06:06:49;;;;;;;52.55;39.75;;;18.70;99.90;;;;;;5035782;28;20040;-70
2021/06/20 06:09:15;;;;;;;51.95;38.50;;;19.00;99.90;;;;;;5035247;28;20081;-71
2021/06/20 06:11:40;;;;;;;52.63;37.42;;;19.30;99.90;;;;;;5035786;28;20124;-71
2021/06/20 06:14:06;;;;;;;47.28;35.55;;;19.60;99.90;;;;;;5035570;28;20092;-70
2021/06/20 06:16:32;;;;;;;49.55;35.92;;;19.60;99.90;;;;;;5035910;28;20037;-71
2021/06/20 06:18:57;;;;;;;52.10;36.78;;;19.60;99.90;;;;;;5035196;28;20033;-71
2021/06/20 06:21:23;;;;;;;47.60;33.22;;;19.60;99.90;;;;;;5035296;28;20387;-71
2021/06/20 06:23:49;;;;;;;43.35;29.52;;;19.50;99.90;;;;;;5035428;28;20045;-70
2021/06/20 06:26:14;;;;;;;47.50;32.70;;;19.50;99.90;;;;;;5035325;28;20064;-69
2021/06/20 06:28:40;;;;;;;49.58;33.42;;;19.50;99.90;;;;;;5035078;28;20485;-69
2021/06/20 06:31:06;;;;;;;43.67;31.67;;;19.60;99.90;;;;;;5035100;28;20060;-69
2021/06/20 06:33:31;;;;;;;38.42;28.25;;;19.80;99.90;;;;;;5034405;28;20116;-68
2021/06/20 06:35:58;;;;;;;39.58;28.00;;;19.90;99.90;;;;;;5035189;28;20497;-68
2021/06/20 06:38:23;;;;;;;35.63;25.30;;;19.90;99.90;;;;;;5035208;28;20117;-69
2021/06/20 06:40:50;;;;;;;31.17;24.08;;;19.90;99.90;;;;;;5035047;28;20132;-69
2021/06/20 06:43:16;;;;;;;33.10;25.23;;;20.00;99.90;;;;;;5035056;28;20136;-69
2021/06/20 06:45:41;;;;;;;31.23;23.52;;;20.00;99.90;;;;;;5035196;28;20533;-69
2021/06/20 06:48:07;;;;;;;36.15;24.55;;;19.90;99.90;;;;;;5035087;28;20080;-69
2021/06/20 06:50:33;;;;;;;30.05;22.30;;;19.80;99.90;;;;;;5034413;28;20041;-69
2021/06/20 06:52:59;;;;;;;30.48;24.45;;;19.70;99.90;;;;;;5034986;28;20065;-69
2021/06/20 06:55:25;;;;;;;28.50;20.98;;;19.60;99.90;;;;;;5034857;28;20041;-69
2021/06/20 06:57:50;;;;;;;22.75;18.17;;;19.50;99.90;;;;;;5034421;28;20447;-68
2021/06/20 07:00:17;;;;;;;26.08;16.65;;;19.40;99.90;;;;;;5034312;28;20079;-69
2021/06/20 07:02:42;;;;;;;22.58;16.27;;;19.40;99.90;;;;;;5034570;28;20041;-69
2021/06/20 07:05:10;;;;;;;20.45;16.08;;;19.30;99.90;;;;;;5034824;28;20048;-69
2021/06/20 07:07:35;;;;;;;18.60;14.65;;;19.40;99.90;;;;;;5034917;28;20076;-68
2021/06/20 07:10:01;;;;;;;16.45;12.77;;;19.50;99.90;;;;;;5034315;28;20131;-69
2021/06/20 07:12:31;;;;;;;17.27;13.27;;;19.40;99.90;;;;;;5034935;28;20056;-68
2021/06/20 07:14:57;;;;;;;18.15;13.38;;;19.50;99.90;;;;;;5034771;28;20048;-68
2021/06/20 07:17:23;;;;;;;18.60;14.18;;;19.40;99.90;;;;;;5034501;28;20037;-69
2021/06/20 07:19:48;;;;;;;16.77;12.30;;;19.30;99.90;;;;;;5034233;28;20398;-68
2021/06/20 07:22:14;;;;;;;16.83;11.57;;;19.10;99.90;;;;;;5034356;28;20466;-69
2021/06/20 07:24:40;;;;;;;16.15;11.93;;;19.10;99.90;;;;;;5034285;28;20041;-69
2021/06/20 07:27:06;;;;;;;13.52;9.50;;;19.10;99.90;;;;;;5034355;28;20041;-69
2021/06/20 07:29:32;;;;;;;10.40;9.18;;;19.10;99.90;;;;;;5033823;28;20037;-68
2021/06/20 07:31:58;;;;;;;9.88;7.68;;;19.10;99.90;;;;;;5033902;28;20038;-68
2021/06/20 07:34:23;;;;;;;11.38;7.30;;;19.10;99.90;;;;;;5034023;28;20520;-68
2021/06/20 07:36:51;;;;;;;9.23;7.20;;;19.10;99.90;;;;;;5033968;28;20044;-68
2021/06/20 07:39:17;;;;;;;7.60;5.43;;;19.30;99.90;;;;;;5033873;28;20065;-69
2021/06/20 07:41:43;;;;;;;6.30;5.10;;;19.70;99.90;;;;;;5033917;28;20072;-69
2021/06/20 07:44:09;;;;;;;5.82;4.88;;;20.20;99.90;;;;;;5032400;28;20030;-68
2021/06/20 07:46:35;;;;;;;5.90;4.80;;;20.50;99.90;;;;;;5033877;28;20124;-68
2021/06/20 07:49:00;;;;;;;7.13;4.13;;;20.60;99.90;;;;;;5033388;28;20096;-68
2021/06/20 07:51:26;;;;;;;4.47;3.47;;;20.50;99.90;;;;;;5032007;28;20060;-68
2021/06/20 07:53:52;;;;;;;4.22;3.53;;;20.30;99.90;;;;;;5033805;28;20041;-68
2021/06/20 07:56:17;;;;;;;4.85;3.38;;;20.30;99.90;;;;;;5033214;28;20078;-70
2021/06/20 07:58:43;;;;;;;4.07;2.85;;;20.20;99.90;;;;;;5033685;28;20045;-69
2021/06/20 08:01:09;;;;;;;4.80;2.88;;;20.00;99.90;;;;;;5033669;28;20405;-69
2021/06/20 08:03:34;;;;;;;4.47;2.75;;;20.00;99.90;;;;;;5033447;28;20509;-69
2021/06/20 08:06:00;;;;;;;3.05;2.35;;;20.00;99.90;;;;;;5033621;28;20044;-69
2021/06/20 08:08:26;;;;;;;3.55;2.58;;;20.10;99.90;;;;;;5032922;28;20090;-69
2021/06/20 08:10:52;;;;;;;4.10;3.08;;;20.10;99.90;;;;;;5033095;28;20041;-69
2021/06/20 08:13:17;;;;;;;5.72;4.47;;;20.10;99.90;;;;;;5033835;28;20034;-69
2021/06/20 08:15:44;;;;;;;4.55;4.00;;;20.10;99.90;;;;;;5033817;28;20046;-69
2021/06/20 08:18:12;;;;;;;5.88;3.90;;;20.00;99.90;;;;;;5033446;28;20045;-70
2021/06/20 08:20:38;;;;;;;5.90;3.60;;;20.00;99.90;;;;;;5033198;28;20065;-69
2021/06/20 08:23:03;;;;;;;3.92;3.10;;;20.40;99.90;;;;;;5032560;28;20564;-69
2021/06/20 08:25:29;;;;;;;4.97;2.65;;;20.30;99.90;;;;;;5033540;28;20045;-69
2021/06/20 08:27:55;;;;;;;3.40;2.80;;;20.50;99.90;;;;;;5033539;28;20049;-69
2021/06/20 08:30:21;;;;;;;3.92;2.85;;;20.50;99.90;;;;;;5031749;28;20405;-69
2021/06/20 08:32:47;;;;;;;4.28;2.40;;;20.60;99.90;;;;;;5033135;28;20465;-70
2021/06/20 08:35:16;;;;;;;2.40;2.10;;;20.70;99.90;;;;;;5033281;28;20075;-70
2021/06/20 08:37:44;;;;;;;2.85;1.70;;;20.70;99.90;;;;;;5033299;28;20046;-69
2021/06/20 08:40:11;;;;;;;3.67;1.73;;;21.20;99.90;;;;;;5032624;28;20052;-69
2021/06/20 08:42:37;;;;;;;4.40;1.85;;;21.60;99.90;;;;;;5033278;28;20095;-70
2021/06/20 08:45:04;;;;;;;3.17;1.48;;;21.70;99.90;;;;;;5033112;28;20038;-69
2021/06/20 08:47:30;;;;;;;3.55;1.20;;;21.60;99.90;;;;;;5033157;28;20049;-69
2021/06/20 08:49:55;;;;;;;3.63;1.70;;;21.30;99.90;;;;;;5032994;28;20144;-69
2021/06/20 08:52:21;;;;;;;2.85;1.05;;;21.20;99.90;;;;;;5032373;28;20037;-69
2021/06/20 08:55:04;;;;;;;3.97;1.88;;;21.00;99.90;;;;;;5033427;28;20111;-69
2021/06/20 08:57:40;;;;;;;1.73;1.17;;;20.80;99.90;;;;;;5033416;28;20041;-69
2021/06/20 09:00:14;;;;;;;1.75;1.10;;;20.70;99.90;;;;;;5033006;28;20033;-69
2021/06/20 09:02:40;;;;;;;2.50;1.20;;;20.80;99.90;;;;;;5033133;28;20056;-69
2021/06/20 09:05:09;;;;;;;1.98;0.80;;;21.00;99.90;;;;;;5033422;28;20068;-70
2021/06/20 09:07:40;;;;;;;1.85;0.70;;;20.80;99.90;;;;;;5032951;28;20568;-70
2021/06/20 09:10:13;;;;;;;1.95;0.80;;;20.80;99.90;;;;;;5032629;28;20123;-70
2021/06/20 09:12:42;;;;;;;;;;;20.70;99.90;;;;;;5033487;28;20488;-70
2021/06/20 09:15:09;;;;;;;5.70;1.10;;;20.60;99.90;;;;;;5033322;28;19928;-68
2021/06/20 09:17:35;;;;;;;4.30;1.17;;;20.60;99.90;;;;;;5032950;28;20041;-68
2021/06/20 09:20:04;;;;;;;5.45;1.65;;;20.50;99.90;;;;;;5033207;28;20071;-68
2021/06/20 09:22:30;;;;;;;4.00;1.23;;;20.50;99.90;;;;;;5036581;28;20048;-69
2021/06/20 09:25:00;;;;;;;2.22;1.02;;;20.60;99.90;;;;;;5036476;28;20389;-68
2021/06/20 09:27:26;;;;;;;2.72;0.90;;;20.70;99.90;;;;;;5036685;28;20164;-69
2021/06/20 09:29:51;;;;;;;2.08;0.70;;;21.00;99.90;;;;;;5034836;28;20124;-68
2021/06/20 09:32:17;;;;;;;1.55;0.88;;;21.00;99.90;;;;;;5036105;28;20535;-68
2021/06/20 09:34:48;;;;;;;2.75;1.38;;;21.20;99.90;;;;;;5036308;28;20064;-68
2021/06/20 09:37:18;;;;;;;1.63;0.80;;;21.00;99.90;;;;;;5036566;28;20069;-68
2021/06/20 09:39:44;;;;;;;4.38;1.10;;;20.90;99.90;;;;;;5035861;28;20519;-68
2021/06/20 09:42:14;;;;;;;4.50;1.08;;;20.90;99.90;;;;;;5036378;28;20045;-68
2021/06/20 09:44:47;;;;;;;2.65;0.77;;;20.90;99.90;;;;;;5036245;28;20045;-68
2021/06/20 09:47:18;;;;;;;1.90;0.70;;;20.90;99.90;;;;;;5036253;28;20037;-69
2021/06/20 09:49:46;;;;;;;2.28;0.68;;;20.70;99.90;;;;;;5035647;28;20046;-70
2021/06/20 09:52:12;;;;;;;4.00;1.13;;;20.70;99.90;;;;;;5036187;28;20049;-69
2021/06/20 09:54:43;;;;;;;2.78;0.60;;;20.80;99.90;;;;;;5035968;28;20378;-70
2021/06/20 09:57:16;;;;;;;2.58;0.98;;;20.90;99.90;;;;;;5036599;28;20038;-70
2021/06/20 09:59:57;;;;;;;2.42;0.60;;;20.90;99.90;;;;;;5034892;28;20049;-69
2021/06/20 10:02:28;;;;;;;1.30;0.60;;;21.00;99.90;;;;;;5034870;28;20044;-70
2021/06/20 10:04:58;;;;;;;2.75;0.60;;;20.90;99.90;;;;;;5035190;28;20056;-70
2021/06/20 10:07:30;;;;;;;1.48;0.80;;;21.00;99.90;;;;;;5036477;28;20124;-69
2021/06/20 10:09:59;;;;;;;1.38;0.70;;;21.00;99.90;;;;;;5035573;28;20155;-69
2021/06/20 10:12:26;;;;;;;0.88;0.50;;;21.00;99.90;;;;;;5035694;28;20076;-69
2021/06/20 10:14:53;;;;;;;2.22;0.63;;;21.00;99.90;;;;;;5034674;28;20079;-68
2021/06/20 10:17:38;;;;;;;1.67;1.05;;;20.90;99.90;;;;;;5035768;28;20183;-69
2021/06/20 10:20:07;;;;;;;4.70;0.93;;;20.80;99.90;;;;;;5035170;28;20081;-68
2021/06/20 10:22:45;;;;;;;2.97;1.00;;;20.60;99.90;;;;;;5018295;28;20041;-69
2021/06/20 10:25:26;;;;;;;1.67;0.63;;;20.50;99.90;;;;;;5035365;28;20485;-69
2021/06/20 10:28:07;;;;;;;1.20;0.80;;;20.40;99.90;;;;;;5035321;28;20136;-70
2021/06/20 10:30:34;;;;;;;3.15;0.80;;;20.30;99.90;;;;;;5035209;28;20355;-70
2021/06/20 10:33:12;;;;;;;3.92;0.98;;;20.40;99.90;;;;;;5034422;28;20071;-69
2021/06/20 10:35:41;;;;;;;1.88;0.70;;;20.40;99.90;;;;;;5035204;28;20041;-68
2021/06/20 10:38:08;;;;;;;3.58;0.88;;;20.60;99.90;;;;;;5035249;28;20445;-68
2021/06/20 10:40:41;;;;;;;2.13;0.70;;;20.70;99.90;;;;;;5034862;28;20042;-67
2021/06/20 10:43:14;;;;;;;;;;;20.70;99.90;;;;;;5035720;28;20034;-67
2021/06/20 10:45:40;;;;;;;2.50;0.80;;;20.60;99.90;;;;;;5035402;28;19982;-68
2021/06/20 10:48:16;;;;;;;3.35;0.63;;;20.50;99.90;;;;;;5035254;28;20041;-69
2021/06/20 10:50:51;;;;;;;2.92;0.93;;;20.60;99.90;;;;;;5034923;28;20045;-69
2021/06/20 10:53:18;;;;;;;2.15;0.65;;;20.60;99.90;;;;;;5034931;28;20121;-67
2021/06/20 10:55:58;;;;;;;2.03;0.95;;;20.60;99.90;;;;;;5034755;28;20493;-67
2021/06/20 10:58:29;;;;;;;2.17;0.60;;;20.60;99.90;;;;;;5034681;28;20045;-67
2021/06/20 11:01:13;;;;;;;1.90;0.57;;;20.50;99.90;;;;;;5034817;28;20047;-67
2021/06/20 11:03:42;;;;;;;0.98;0.40;;;20.30;99.90;;;;;;5034854;28;20040;-67
2021/06/20 11:06:08;;;;;;;1.95;0.70;;;20.30;99.90;;;;;;5034709;28;20041;-69
2021/06/20 11:08:37;;;;;;;4.00;0.70;;;20.30;99.90;;;;;;5034364;28;20041;-67
2021/06/20 11:11:12;;;;;;;1.90;0.85;;;20.20;99.90;;;;;;5034294;28;20038;-68
2021/06/20 11:13:47;;;;;;;1.45;0.70;;;20.10;99.90;;;;;;5034612;28;20042;-67
2021/06/20 11:16:29;;;;;;;1.23;0.50;;;20.10;99.90;;;;;;5034854;28;20037;-67
2021/06/20 11:19:22;;;;;;;1.73;0.60;;;20.20;99.90;;;;;;5034586;28;20114;-68
2021/06/20 11:21:53;;;;;;;1.87;0.67;;;20.30;99.90;;;;;;5034582;28;20048;-68
2021/06/20 11:24:27;;;;;;;1.88;0.70;;;20.30;99.90;;;;;;5034799;28;20491;-68
2021/06/20 11:27:01;;;;;;;3.28;0.77;;;20.30;99.90;;;;;;5034720;28;20065;-67
2021/06/20 11:29:43;;;;;;;2.70;0.75;;;20.20;99.90;;;;;;5033998;28;20112;-68
2021/06/20 11:32:22;;;;;;;2.05;0.80;;;20.10;99.90;;;;;;5033870;28;20045;-68
2021/06/20 11:34:50;;;;;;;1.77;0.60;;;20.10;99.90;;;;;;5034420;28;20099;-67
2021/06/20 11:37:21;;;;;;;1.83;0.73;;;20.10;99.90;;;;;;5034646;28;20041;-68
2021/06/20 11:39:48;;;;;;;1.90;0.55;;;20.20;99.90;;;;;;5033921;28;20133;-68
2021/06/20 11:42:29;;;;;;;2.65;0.60;;;20.30;99.90;;;;;;5034593;28;20068;-67
2021/06/20 11:45:05;;;;;;;2.63;0.90;;;20.50;99.90;;;;;;5033227;28;20037;-67
2021/06/20 11:47:36;;;;;;;1.38;0.93;;;20.40;99.90;;;;;;5033835;28;20037;-68
2021/06/20 11:50:15;;;;;;;2.05;0.70;;;20.40;99.90;;;;;;5033835;28;20436;-69
2021/06/20 11:52:44;;;;;;;3.40;0.70;;;20.50;99.90;;;;;;5034170;28;20492;-68
2021/06/20 11:55:18;;;;;;;1.85;0.73;;;20.50;99.90;;;;;;5033882;28;20069;-69
2021/06/20 11:57:45;;;;;;;3.20;0.70;;;20.50;99.90;;;;;;5032885;28;20095;-68
2021/06/20 12:00:23;;;;;;;2.63;0.50;;;20.40;99.90;;;;;;5033682;28;20041;-68
2021/06/20 12:03:04;;;;;;;1.88;0.73;;;20.40;99.90;;;;;;5034069;28;20045;-67
2021/06/20 12:05:31;;;;;;;1.52;0.70;;;20.20;99.90;;;;;;5033536;28;20136;-67
2021/06/20 12:08:05;;;;;;;3.30;0.80;;;20.10;99.90;;;;;;5033780;28;20351;-68
2021/06/20 12:10:32;;;;;;;3.47;1.05;;;20.10;99.70;;;;;;5033187;28;20037;-68
2021/06/20 12:13:00;;;;;;;2.33;1.08;;;20.00;99.90;;;;;;5032824;28;20095;-68
2021/06/20 12:15:27;;;;;;;6.72;0.80;;;19.90;99.90;;;;;;5033662;28;20037;-67
2021/06/20 12:17:53;;;;;;;3.20;1.40;;;19.90;99.90;;;;;;5033472;28;20128;-68
2021/06/20 12:20:37;;;;;;;2.67;1.00;;;20.00;99.90;;;;;;5031734;28;20072;-69
2021/06/20 12:23:05;;;;;;;3.67;0.88;;;20.00;99.90;;;;;;5033306;28;20038;-69
2021/06/20 12:25:45;;;;;;;4.30;1.20;;;19.90;99.90;;;;;;5033387;28;20041;-69
2021/06/20 12:28:12;;;;;;;4.25;1.50;;;19.90;99.90;;;;;;5033293;28;20045;-69
2021/06/20 12:30:40;;;;;;;2.17;0.85;;;19.70;99.90;;;;;;5033305;28;20045;-69
2021/06/20 12:33:11;;;;;;;4.80;1.30;;;19.70;99.90;;;;;;5033138;28;20111;-69
2021/06/20 12:35:37;;;;;;;2.55;1.30;;;19.60;99.90;;;;;;5033249;28;20061;-69
2021/06/20 12:38:17;;;;;;;4.93;1.67;;;19.60;99.90;;;;;;5032320;28;20049;-69
2021/06/20 12:40:43;;;;;;;4.93;1.23;;;19.60;99.90;;;;;;5032837;28;20029;-69
2021/06/20 12:43:20;;;;;;;5.03;1.50;;;19.40;99.90;;;;;;5033331;28;20042;-69